createdAt,value
2022-11-13T00:01:25.531Z,58.62
2022-11-13T00:03:53.977Z,58.43
2022-11-13T00:06:23.908Z,58.59
2022-11-13T00:08:55.917Z,58.51
2022-11-13T00:11:24.278Z,58.28
2022-11-13T00:13:52.602Z,58.27
2022-11-13T00:16:22.985Z,58.57
2022-11-13T00:18:51.370Z,58.50
2022-11-13T00:21:23.274Z,58.01
2022-11-13T00:23:53.180Z,58.35
2022-11-13T00:26:24.001Z,58.12
2022-11-13T00:28:55.530Z,58.40
2022-11-13T00:31:24.371Z,58.48
2022-11-13T00:36:41.655Z,58.52
2022-11-13T00:39:12.003Z,58.34
2022-11-13T00:41:40.456Z,58.49
2022-11-13T00:44:09.040Z,58.43
2022-11-13T00:46:37.345Z,58.35
2022-11-13T00:49:05.951Z,58.18
2022-11-13T00:51:34.431Z,58.32
2022-11-13T00:54:02.701Z,58.22
2022-11-13T00:56:32.460Z,58.15
2022-11-13T00:59:00.783Z,58.14
2022-11-13T01:01:29.202Z,58.17
2022-11-13T01:03:57.905Z,58.09
2022-11-13T01:06:28.156Z,58.09
2022-11-13T01:08:59.698Z,57.95
2022-11-13T01:11:31.840Z,58.16
2022-11-13T01:14:00.223Z,58.19
2022-11-13T01:16:29.886Z,57.93
2022-11-13T01:18:58.666Z,58.30
2022-11-13T01:21:28.631Z,58.44
2022-11-13T01:23:57.097Z,58.34
2022-11-13T01:26:27.733Z,58.30
2022-11-13T01:28:59.648Z,58.48
2022-11-13T01:31:31.147Z,58.16
2022-11-13T01:34:00.225Z,58.18
2022-11-13T01:36:30.634Z,58.20
2022-11-13T01:38:59.595Z,58.23
2022-11-13T01:41:32.195Z,58.25
2022-11-13T01:44:02.682Z,58.27
2022-11-13T01:46:34.294Z,58.20
2022-11-13T01:49:28.930Z,58.15
2022-11-13T01:52:00.689Z,58.26
2022-11-13T01:54:34.829Z,58.12
2022-11-13T01:57:05.215Z,58.07
2022-11-13T01:59:39.741Z,58.01
2022-11-13T02:02:08.963Z,57.96
2022-11-13T02:04:37.868Z,57.76
2022-11-13T02:07:11.378Z,57.79
2022-11-13T02:09:42.625Z,57.74
2022-11-13T02:12:14.697Z,57.91
2022-11-13T02:14:47.708Z,57.63
2022-11-13T02:17:20.989Z,57.91
2022-11-13T02:19:54.055Z,57.62
2022-11-13T02:22:30.355Z,57.82
2022-11-13T02:25:01.390Z,57.59
2022-11-13T02:27:35.596Z,57.66
2022-11-13T02:30:16.477Z,57.36
2022-11-13T02:32:46.399Z,57.56
2022-11-13T02:35:17.269Z,57.31
2022-11-13T02:37:45.512Z,57.25
2022-11-13T02:40:15.589Z,57.50
2022-11-13T02:42:43.994Z,57.55
2022-11-13T02:45:12.477Z,57.27
2022-11-13T02:47:40.796Z,57.29
2022-11-13T02:50:10.942Z,57.31
2022-11-13T02:52:39.296Z,57.14
2022-11-13T02:55:08.898Z,57.40
2022-11-13T02:57:38.490Z,57.59
2022-11-13T03:00:13.544Z,57.59
2022-11-13T03:02:42.489Z,57.24
2022-11-13T03:05:13.231Z,57.22
2022-11-13T03:07:42.670Z,57.34
2022-11-13T03:10:12.381Z,57.40
2022-11-13T03:12:42.436Z,57.42
2022-11-13T03:15:11.992Z,57.42
2022-11-13T03:17:40.276Z,57.54
2022-11-13T03:20:09.558Z,57.39
2022-11-13T03:22:37.788Z,57.41
2022-11-13T03:25:10.697Z,57.48
2022-11-13T03:27:40.808Z,57.39
2022-11-13T03:30:11.293Z,57.80
2022-11-13T03:32:39.612Z,57.87
2022-11-13T03:35:09.016Z,58.10
2022-11-13T03:37:37.316Z,57.87
2022-11-13T03:40:06.856Z,57.93
2022-11-13T03:42:35.331Z,58.16
2022-11-13T03:47:33.398Z,57.76
2022-11-13T03:50:01.622Z,57.76
2022-11-13T03:52:29.893Z,57.66
2022-11-13T03:54:58.157Z,57.86
2022-11-13T03:57:26.432Z,57.81
2022-11-13T03:59:54.717Z,57.86
2022-11-13T04:02:22.956Z,57.74
2022-11-13T04:04:52.582Z,57.83
2022-11-13T04:07:21.001Z,57.85
2022-11-13T04:09:49.241Z,58.08
2022-11-13T04:12:17.507Z,57.83
2022-11-13T04:14:45.773Z,57.80
2022-11-13T04:17:14.046Z,58.10
2022-11-13T04:19:42.297Z,58.20
2022-11-13T04:22:11.944Z,57.86
2022-11-13T04:24:40.209Z,58.16
2022-11-13T04:27:08.502Z,58.10
2022-11-13T04:29:36.720Z,57.90
2022-11-13T04:32:05.255Z,57.77
2022-11-13T04:34:33.572Z,57.99
2022-11-13T04:37:02.085Z,57.80
2022-11-13T04:39:32.066Z,57.66
2022-11-13T04:42:17.972Z,57.51
2022-11-13T04:44:46.258Z,57.44
2022-11-13T04:47:15.089Z,57.66
2022-11-13T04:49:43.497Z,57.60
2022-11-13T04:52:11.747Z,57.70
2022-11-13T04:54:42.150Z,57.35
2022-11-13T04:57:10.468Z,57.41
2022-11-13T04:59:38.728Z,57.39
2022-11-13T05:02:07.053Z,57.74
2022-11-13T05:04:35.378Z,57.81
2022-11-13T05:07:03.786Z,57.76
2022-11-13T05:09:32.075Z,57.75
2022-11-13T05:12:01.695Z,57.60
2022-11-13T05:14:29.921Z,57.34
2022-11-13T05:16:58.653Z,57.77
2022-11-13T05:19:26.905Z,57.84
2022-11-13T05:21:55.187Z,57.92
2022-11-13T05:24:23.462Z,58.22
2022-11-13T05:26:52.178Z,58.14
2022-11-13T05:29:22.059Z,57.72
2022-11-13T05:31:50.387Z,58.11
2022-11-13T05:34:18.765Z,58.18
2022-11-13T05:36:47.026Z,58.11
2022-11-13T05:39:15.455Z,58.28
2022-11-13T05:41:43.757Z,58.18
2022-11-13T05:44:12.248Z,58.29
2022-11-13T05:46:41.961Z,58.12
2022-11-13T05:49:11.825Z,58.22
2022-11-13T05:51:40.133Z,58.10
2022-11-13T05:54:08.480Z,58.47
2022-11-13T05:56:38.004Z,58.31
2022-11-13T05:59:07.161Z,58.60
2022-11-13T06:01:38.308Z,58.29
2022-11-13T06:04:09.367Z,58.55
2022-11-13T06:06:37.763Z,58.65
2022-11-13T06:09:07.284Z,58.75
2022-11-13T06:11:35.573Z,58.79
2022-11-13T06:14:03.860Z,58.62
2022-11-13T06:16:36.745Z,59.03
2022-11-13T06:19:09.307Z,58.73
2022-11-13T06:21:40.490Z,58.80
2022-11-13T06:24:11.175Z,58.95
2022-11-13T06:26:39.750Z,58.98
2022-11-13T06:29:12.553Z,58.92
2022-11-13T06:31:41.218Z,58.95
2022-11-13T06:34:10.899Z,59.06
2022-11-13T06:36:39.236Z,58.85
2022-11-13T06:39:08.948Z,59.33
2022-11-13T06:41:39.755Z,58.86
2022-11-13T06:44:08.106Z,58.75
2022-11-13T06:46:36.303Z,58.94
2022-11-13T06:49:04.638Z,58.60
2022-11-13T06:51:34.349Z,59.13
2022-11-13T06:54:02.649Z,59.09
2022-11-13T06:56:30.965Z,59.04
2022-11-13T06:58:59.207Z,59.21
2022-11-13T07:01:28.513Z,59.29
2022-11-13T07:03:57.334Z,59.23
2022-11-13T07:06:26.527Z,59.12
2022-11-13T07:08:56.189Z,59.00
2022-11-13T07:11:25.236Z,59.07
2022-11-13T07:13:53.768Z,59.13
2022-11-13T07:16:22.046Z,58.81
2022-11-13T07:18:54.583Z,59.19
2022-11-13T07:21:23.962Z,59.33
2022-11-13T07:23:52.521Z,59.37
2022-11-13T07:26:22.209Z,59.04
2022-11-13T07:28:51.345Z,59.20
2022-11-13T07:31:20.829Z,59.17
2022-11-13T07:33:51.493Z,59.14
2022-11-13T07:36:20.132Z,59.13
2022-11-13T07:38:48.421Z,59.54
2022-11-13T07:41:16.726Z,59.72
2022-11-13T07:43:46.492Z,59.75
2022-11-13T07:46:14.798Z,59.40
2022-11-13T07:48:43.137Z,59.39
2022-11-13T07:51:11.500Z,59.34
2022-11-13T07:53:40.076Z,59.22
2022-11-13T07:56:09.319Z,59.27
2022-11-13T07:58:37.739Z,59.04
2022-11-13T08:01:08.140Z,59.19
2022-11-13T08:03:37.257Z,59.27
2022-11-13T08:06:08.230Z,59.37
2022-11-13T08:08:37.104Z,59.42
2022-11-13T08:11:06.857Z,58.92
2022-11-13T08:13:35.537Z,58.82
2022-11-13T08:16:06.338Z,59.30
2022-11-13T08:18:34.947Z,59.12
2022-11-13T08:21:07.108Z,59.44
2022-11-13T08:23:38.810Z,59.41
2022-11-13T08:26:08.011Z,59.38
2022-11-13T08:28:37.532Z,59.73
2022-11-13T08:31:12.420Z,59.93
2022-11-13T08:33:41.001Z,59.77
2022-11-13T08:36:10.918Z,60.21
2022-11-13T08:38:39.336Z,59.83
2022-11-13T08:41:09.672Z,60.01
2022-11-13T08:43:38.257Z,60.06
2022-11-13T08:46:08.420Z,59.45
2022-11-13T08:48:37.737Z,59.83
2022-11-13T08:51:06.534Z,59.62
2022-11-13T08:53:34.792Z,59.49
2022-11-13T08:56:03.148Z,59.43
2022-11-13T08:58:31.832Z,59.13
2022-11-13T09:01:04.653Z,59.59
2022-11-13T09:03:36.227Z,59.66
2022-11-13T09:06:07.548Z,59.71
2022-11-13T09:08:36.322Z,59.92
2022-11-13T09:11:06.221Z,59.93
2022-11-13T09:13:41.162Z,59.96
2022-11-13T09:16:12.242Z,59.95
2022-11-13T09:18:41.970Z,60.06
2022-11-13T09:21:11.106Z,60.07
2022-11-13T09:23:39.439Z,60.04
2022-11-13T09:26:07.712Z,59.88
2022-11-13T09:28:36.669Z,59.72
2022-11-13T09:31:06.401Z,59.72
2022-11-13T09:33:34.918Z,59.99
2022-11-13T09:36:11.653Z,59.84
2022-11-13T09:38:40.017Z,59.82
2022-11-13T09:41:12.175Z,59.87
2022-11-13T09:43:44.965Z,59.76
2022-11-13T09:46:22.006Z,59.65
2022-11-13T09:48:55.613Z,59.87
2022-11-13T09:51:29.600Z,59.75
2022-11-13T09:53:59.098Z,59.72
2022-11-13T09:56:33.451Z,59.93
2022-11-13T09:59:09.191Z,59.96
2022-11-13T10:01:50.620Z,60.04
2022-11-13T10:04:27.799Z,60.28
2022-11-13T10:07:15.540Z,60.33
2022-11-13T10:09:58.583Z,60.22
2022-11-13T10:12:29.511Z,59.88
2022-11-13T10:15:02.816Z,60.13
2022-11-13T10:17:39.333Z,60.18
2022-11-13T10:20:15.340Z,60.17
2022-11-13T10:22:51.982Z,60.29
2022-11-13T10:25:23.213Z,60.25
2022-11-13T10:27:57.778Z,60.46
2022-11-13T10:30:26.672Z,61.02
2022-11-13T10:32:54.989Z,61.04
2022-11-13T10:35:45.992Z,61.08
2022-11-13T10:38:26.452Z,60.95
2022-11-13T10:41:05.634Z,61.05
2022-11-13T10:43:34.866Z,60.89
2022-11-13T10:46:06.382Z,60.96
2022-11-13T10:48:37.234Z,60.94
2022-11-13T10:51:25.327Z,60.75
2022-11-13T10:53:55.635Z,60.89
2022-11-13T10:56:29.798Z,60.93
2022-11-13T10:59:03.993Z,60.78
2022-11-13T11:01:32.590Z,60.76
2022-11-13T11:04:00.850Z,60.90
2022-11-13T11:07:12.705Z,60.81
2022-11-13T11:09:29.880Z,60.99
2022-11-13T11:12:17.213Z,61.06
2022-11-13T11:15:12.570Z,61.03
2022-11-13T11:17:48.130Z,61.09
2022-11-13T11:20:27.056Z,60.98
2022-11-13T11:23:03.655Z,60.99
2022-11-13T11:25:41.772Z,61.02
2022-11-13T11:28:24.647Z,61.28
2022-11-13T11:31:00.972Z,60.95
2022-11-13T11:33:35.479Z,60.96
2022-11-13T11:36:16.092Z,61.05
2022-11-13T11:38:52.381Z,60.77
2022-11-13T11:41:35.481Z,60.59
2022-11-13T11:44:15.149Z,60.50
2022-11-13T11:46:46.691Z,60.24
2022-11-13T11:49:15.362Z,60.26
2022-11-13T11:51:57.772Z,60.08
2022-11-13T11:54:42.172Z,60.12
2022-11-13T11:57:29.778Z,59.99
2022-11-13T12:00:07.429Z,59.79
2022-11-13T12:02:59.431Z,59.97
2022-11-13T12:05:31.617Z,59.92
2022-11-13T12:08:11.781Z,60.06
2022-11-13T12:10:47.852Z,59.90
2022-11-13T12:13:29.295Z,59.76
2022-11-13T12:16:06.337Z,59.60
2022-11-13T12:18:48.959Z,59.45
2022-11-13T12:21:24.948Z,59.53
2022-11-13T12:24:29.777Z,59.54
2022-11-13T12:27:11.014Z,59.74
2022-11-13T12:30:01.844Z,59.93
2022-11-13T12:32:45.910Z,60.23
2022-11-13T12:35:19.817Z,60.36
2022-11-13T12:38:00.484Z,60.38
2022-11-13T12:40:41.252Z,60.37
2022-11-13T12:43:35.177Z,60.33
2022-11-13T12:46:09.976Z,60.27
2022-11-13T12:48:40.757Z,60.15
2022-11-13T12:51:11.956Z,60.14
2022-11-13T12:53:49.942Z,59.82
2022-11-13T12:56:32.871Z,59.64
2022-11-13T13:02:04.401Z,59.31
2022-11-13T13:04:49.737Z,58.95
2022-11-13T13:07:38.468Z,58.45
2022-11-13T13:10:18.418Z,57.75
2022-11-13T13:12:58.879Z,57.63
2022-11-13T13:15:36.402Z,57.66
2022-11-13T13:18:13.714Z,57.85
2022-11-13T13:20:47.202Z,57.89
2022-11-13T13:23:27.881Z,57.81
2022-11-13T13:26:08.235Z,57.28
2022-11-13T13:28:41.505Z,57.22
2022-11-13T13:31:24.749Z,56.92
2022-11-13T13:34:19.806Z,56.64
2022-11-13T13:36:56.257Z,55.94
2022-11-13T13:39:38.789Z,55.89
2022-11-13T13:42:28.651Z,55.76
2022-11-13T13:45:25.537Z,55.89
2022-11-13T13:47:56.896Z,55.59
2022-11-13T13:50:33.318Z,55.38
2022-11-13T13:53:03.396Z,54.31
2022-11-13T13:55:36.600Z,54.02
2022-11-13T13:58:10.713Z,53.50
2022-11-13T14:00:59.000Z,53.78
2022-11-13T14:03:31.098Z,53.87
2022-11-13T14:06:19.086Z,53.78
2022-11-13T14:08:48.412Z,53.64
2022-11-13T14:11:20.350Z,53.62
2022-11-13T14:13:48.744Z,53.62
2022-11-13T14:16:17.047Z,53.12
2022-11-13T14:18:45.611Z,52.85
2022-11-13T14:21:18.230Z,51.81
2022-11-13T14:23:50.560Z,52.14
2022-11-13T14:26:21.359Z,51.11
2022-11-13T14:28:56.468Z,50.75
2022-11-13T14:31:30.006Z,50.68
2022-11-13T14:34:01.917Z,50.65
2022-11-13T14:36:35.348Z,50.63
2022-11-13T14:39:04.135Z,50.61
2022-11-13T14:41:37.147Z,50.38
2022-11-13T14:44:06.203Z,50.23
2022-11-13T14:46:38.076Z,50.07
2022-11-13T14:49:16.066Z,49.91
2022-11-13T14:51:56.703Z,49.19
2022-11-13T14:54:53.280Z,49.29
2022-11-13T14:57:20.679Z,49.33
2022-11-13T14:59:48.910Z,49.43
2022-11-13T15:02:17.189Z,49.64
2022-11-13T15:04:45.442Z,49.61
2022-11-13T15:07:30.226Z,49.20
2022-11-13T15:09:59.575Z,49.17
2022-11-13T15:12:28.195Z,49.18
2022-11-13T15:14:56.430Z,48.83
2022-11-13T15:17:24.817Z,48.85
2022-11-13T15:19:55.001Z,48.60
2022-11-13T15:22:27.673Z,48.87
2022-11-13T15:24:56.784Z,48.88
2022-11-13T15:27:25.086Z,48.73
2022-11-13T15:29:53.276Z,48.53
2022-11-13T15:32:21.537Z,48.44
2022-11-13T15:34:49.796Z,48.49
2022-11-13T15:37:18.545Z,48.63
2022-11-13T15:39:48.202Z,48.46
2022-11-13T15:42:19.910Z,48.52
2022-11-13T15:44:48.460Z,48.71
2022-11-13T15:47:30.979Z,48.77
2022-11-13T15:50:15.790Z,48.80
2022-11-13T15:52:47.686Z,48.57
2022-11-13T15:55:33.108Z,48.81
2022-11-13T15:58:01.940Z,48.89
2022-11-13T16:00:30.744Z,48.73
2022-11-13T16:02:59.339Z,48.89
2022-11-13T16:05:29.572Z,48.82
2022-11-13T16:07:58.682Z,48.80
2022-11-13T16:10:27.124Z,48.66
2022-11-13T16:12:56.989Z,48.77
2022-11-13T16:15:25.266Z,48.72
2022-11-13T16:17:57.212Z,48.76
2022-11-13T16:20:25.954Z,48.80
2022-11-13T16:22:54.997Z,49.07
2022-11-13T16:25:23.940Z,49.07
2022-11-13T16:27:53.306Z,49.15
2022-11-13T16:30:25.335Z,49.12
2022-11-13T16:32:53.649Z,49.01
2022-11-13T16:35:22.120Z,48.94
2022-11-13T16:37:50.397Z,49.09
2022-11-13T16:40:23.122Z,49.11
2022-11-13T16:42:51.677Z,49.28
2022-11-13T16:45:22.700Z,48.99
2022-11-13T16:47:51.553Z,49.17
2022-11-13T16:50:24.719Z,49.32
2022-11-13T16:52:53.017Z,49.15
2022-11-13T16:55:21.353Z,49.29
2022-11-13T16:57:49.669Z,49.30
2022-11-13T17:00:20.448Z,49.26
2022-11-13T17:02:53.563Z,49.19
2022-11-13T17:05:23.761Z,49.27
2022-11-13T17:07:52.028Z,49.24
2022-11-13T17:10:31.241Z,49.08
2022-11-13T17:13:00.329Z,49.20
2022-11-13T17:15:28.613Z,49.05
2022-11-13T17:17:59.858Z,49.12
2022-11-13T17:20:28.368Z,49.15
2022-11-13T17:22:56.651Z,49.23
2022-11-13T17:25:26.775Z,49.24
2022-11-13T17:27:55.454Z,49.13
2022-11-13T17:30:23.872Z,49.25
2022-11-13T17:32:52.152Z,49.22
2022-11-13T17:35:21.909Z,49.33
2022-11-13T17:37:50.217Z,49.23
2022-11-13T17:40:18.738Z,49.08
2022-11-13T17:42:47.999Z,49.42
2022-11-13T17:45:16.846Z,49.16
2022-11-13T17:47:45.102Z,49.30
2022-11-13T17:50:15.017Z,49.26
2022-11-13T17:52:44.675Z,49.30
2022-11-13T17:55:14.106Z,49.24
2022-11-13T17:57:42.500Z,49.40
2022-11-13T18:00:12.599Z,49.36
2022-11-13T18:02:40.841Z,49.29
2022-11-13T18:05:10.050Z,49.23
2022-11-13T18:07:40.068Z,49.32
2022-11-13T18:10:11.863Z,49.27
2022-11-13T18:12:40.222Z,49.34
2022-11-13T18:15:09.363Z,49.30
2022-11-13T18:17:37.666Z,49.34
2022-11-13T18:20:07.058Z,49.25
2022-11-13T18:22:35.339Z,49.21
2022-11-13T18:25:04.200Z,49.18
2022-11-13T18:27:33.866Z,49.34
2022-11-13T18:30:02.169Z,49.25
2022-11-13T18:32:30.395Z,49.33
2022-11-13T18:34:58.654Z,49.42
2022-11-13T18:37:26.925Z,49.26
2022-11-13T18:39:55.190Z,49.39
2022-11-13T18:42:23.513Z,49.50
2022-11-13T18:44:53.246Z,49.56
2022-11-13T18:47:21.888Z,49.57
2022-11-13T18:49:50.285Z,49.57
2022-11-13T18:52:18.724Z,49.50
2022-11-13T18:54:47.039Z,49.57
2022-11-13T18:57:15.293Z,49.74
2022-11-13T18:59:43.653Z,49.58
2022-11-13T19:02:13.928Z,49.63
2022-11-13T19:04:42.293Z,49.75
2022-11-13T19:07:12.288Z,49.74
2022-11-13T19:09:45.675Z,49.64
2022-11-13T19:12:13.956Z,49.66
2022-11-13T19:14:42.270Z,49.69
2022-11-13T19:17:10.919Z,49.64
2022-11-13T19:19:42.302Z,49.45
2022-11-13T19:22:10.617Z,49.68
2022-11-13T19:24:38.907Z,49.47
2022-11-13T19:27:07.315Z,49.48
2022-11-13T19:29:35.642Z,49.67
2022-11-13T19:32:04.059Z,49.70
2022-11-13T19:34:32.383Z,49.50
2022-11-13T19:37:02.221Z,49.77
2022-11-13T19:39:30.635Z,49.76
2022-11-13T19:41:58.947Z,49.79
2022-11-13T19:44:27.997Z,49.89
2022-11-13T19:46:57.391Z,49.97
2022-11-13T19:49:25.823Z,50.08
2022-11-13T19:51:55.343Z,49.99
2022-11-13T19:54:25.027Z,50.01
2022-11-13T19:56:53.360Z,50.01
2022-11-13T19:59:21.728Z,49.88
2022-11-13T20:01:50.139Z,49.94
2022-11-13T20:04:18.519Z,49.93
2022-11-13T20:06:46.977Z,50.02
2022-11-13T20:09:15.377Z,50.03
2022-11-13T20:11:45.831Z,49.97
2022-11-13T20:14:14.486Z,50.13
2022-11-13T20:16:42.789Z,50.14
2022-11-13T20:19:11.105Z,50.25
2022-11-13T20:21:40.836Z,50.33
2022-11-13T20:24:11.448Z,50.38
2022-11-13T20:26:40.427Z,50.41
2022-11-13T20:29:10.163Z,50.53
2022-11-13T20:31:38.494Z,50.54
2022-11-13T20:34:06.977Z,50.61
2022-11-13T20:36:35.321Z,50.68
2022-11-13T20:39:08.976Z,50.58
2022-11-13T20:41:37.731Z,50.73
2022-11-13T20:44:06.566Z,50.65
2022-11-13T20:46:36.504Z,50.66
2022-11-13T20:49:06.286Z,50.71
2022-11-13T20:51:34.697Z,50.65
2022-11-13T20:54:03.004Z,50.77
2022-11-13T20:56:31.432Z,50.88
2022-11-13T20:58:59.967Z,50.87
2022-11-13T21:01:28.299Z,50.93
2022-11-13T21:03:59.593Z,51.09
2022-11-13T21:06:28.019Z,51.17
2022-11-13T21:08:58.052Z,51.22
2022-11-13T21:11:26.952Z,51.22
2022-11-13T21:13:57.526Z,51.12
2022-11-13T21:16:28.101Z,51.22
2022-11-13T21:19:00.164Z,51.29
2022-11-13T21:21:29.211Z,51.29
2022-11-13T21:23:58.895Z,51.37
2022-11-13T21:26:28.382Z,51.48
2022-11-13T21:28:57.306Z,51.42
2022-11-13T21:31:25.836Z,51.26
2022-11-13T21:33:55.058Z,51.21
2022-11-13T21:36:27.346Z,51.03
2022-11-13T21:38:57.051Z,51.05
2022-11-13T21:41:26.480Z,50.88
2022-11-13T21:43:59.358Z,51.01
2022-11-13T21:46:30.254Z,50.99
2022-11-13T21:49:00.879Z,50.96
2022-11-13T21:51:31.195Z,51.18
2022-11-13T21:53:59.833Z,51.00
2022-11-13T21:56:29.879Z,51.01
2022-11-13T21:58:58.754Z,51.00
2022-11-13T22:01:29.031Z,51.09
2022-11-13T22:03:58.675Z,50.83
2022-11-13T22:06:31.141Z,50.85
2022-11-13T22:09:02.124Z,50.90
2022-11-13T22:11:33.704Z,50.95
2022-11-13T22:14:02.571Z,50.78
2022-11-13T22:16:33.278Z,50.76
2022-11-13T22:19:03.720Z,50.88
2022-11-13T22:21:33.774Z,50.78
2022-11-13T22:24:02.580Z,50.82
2022-11-13T22:26:32.043Z,50.98
2022-11-13T22:29:01.544Z,50.85
2022-11-13T22:31:31.668Z,50.93
2022-11-13T22:34:00.131Z,50.86
2022-11-13T22:36:31.089Z,50.89
2022-11-13T22:39:00.996Z,51.00
2022-11-13T22:41:31.844Z,50.74
2022-11-13T22:44:02.877Z,50.70
2022-11-13T22:46:33.509Z,50.67
2022-11-13T22:49:03.660Z,50.70
2022-11-13T22:51:37.910Z,50.79
2022-11-13T22:54:09.952Z,50.49
2022-11-13T22:56:40.157Z,50.52
2022-11-13T22:59:12.194Z,50.58
2022-11-13T23:01:43.648Z,50.51
2022-11-13T23:04:14.623Z,50.61
2022-11-13T23:06:43.265Z,50.54
2022-11-13T23:09:13.015Z,50.64
2022-11-13T23:11:42.416Z,50.63
2022-11-13T23:14:15.776Z,50.57
2022-11-13T23:16:44.289Z,50.45
2022-11-13T23:19:12.705Z,50.48
2022-11-13T23:21:40.944Z,50.44
2022-11-13T23:24:13.021Z,50.38
2022-11-13T23:26:41.257Z,50.48
2022-11-13T23:29:09.533Z,50.37
2022-11-13T23:31:37.812Z,50.40
2022-11-13T23:34:06.527Z,50.35
2022-11-13T23:36:34.830Z,50.46
2022-11-13T23:39:03.192Z,50.27
2022-11-13T23:41:32.817Z,50.35
2022-11-13T23:44:09.814Z,50.42
2022-11-13T23:46:38.206Z,50.51
2022-11-13T23:49:06.468Z,50.47
2022-11-13T23:51:34.756Z,50.58
2022-11-13T23:54:03.204Z,50.54
2022-11-13T23:56:32.804Z,50.37
2022-11-13T23:59:01.034Z,50.38
